Terminal Aerodrome Forecast
Issued by NWS

Current Version | Previous Version | Text Only | Print | Product List | Glossary Off
Versions: 1 2 3 4 5 6 7 8 9 10 11 12 13 14 15 16 17 18 19 20 21 22 23 24 25 26 27

000
FTUS41 KRLX 192100 AAA
TAFCKB
TAF AMD
KCKB 192100Z 1921/2018 28009G21KT P6SM FEW060
     FM200200 31007KT P6SM SCT050
     FM200800 29004KT 2SM BR BKN035
     FM201000 29004KT 1SM BR BKN035
     FM201200 30005KT 4SM BR SCT035
     FM201400 30006KT P6SM BKN200=

USA.gov is the U.S. government's official web portal to all federal, state and local government web resources and services.